Time;durP1;ratioP1;P1;durP2;ratioP2;P2;SDS_P1;SDS_P2;PMS_P1;PMS_P2;Temp;Humidity;BMP_temperature;BMP_pressure;BME280_temperature;BME280_humidity;BME280_pressure;Samples;Min_cycle;Max_cycle;Signal;HPM_P1;HPM_P2
2022/12/04 00:00:13;;;;;;;;;;;103.10;2227.20;;;;;;5012474;28;20033;-77
2022/12/04 00:02:40;;;;;;;8.88;3.80;;;103.10;2227.20;;;;;;5012087;28;19968;-76
2022/12/04 00:05:07;;;;;;;6.97;4.00;;;103.00;2227.20;;;;;;5012982;28;20414;-77
2022/12/04 00:07:33;;;;;;;8.93;3.40;;;103.10;2227.20;;;;;;5006090;28;20078;-77
2022/12/04 00:09:58;;;;;;;;;;;103.10;2227.20;;;;;;5015634;28;20030;-76
2022/12/04 00:12:24;;;;;;;11.02;4.70;;;103.10;2227.20;;;;;;5015389;28;20276;-77
2022/12/04 00:14:50;;;;;;;;;;;103.10;2227.20;;;;;;5014744;28;20532;-77
2022/12/04 00:17:16;;;;;;;9.68;4.53;;;103.00;2227.20;;;;;;5018630;28;19996;-77
2022/12/04 00:19:41;;;;;;;;;;;103.10;2227.20;;;;;;5015695;28;20021;-77
2022/12/04 00:22:07;;;;;;;8.57;3.50;;;103.00;2227.20;;;;;;5015203;28;19966;-77
2022/12/04 00:24:33;;;;;;;;;;;103.00;2227.20;;;;;;5015364;28;20469;-77
2022/12/04 00:26:59;;;;;;;7.82;3.42;;;103.00;2227.20;;;;;;5028714;28;19959;-77
2022/12/04 00:29:24;;;;;;;;;;;103.00;2227.20;;;;;;5003921;28;20116;-78
2022/12/04 00:31:50;;;;;;;5.95;3.33;;;103.00;2227.20;;;;;;5030607;28;19905;-78
2022/12/04 00:34:15;;;;;;;;;;;103.00;2227.20;;;;;;5002396;28;20125;-77
2022/12/04 00:36:41;;;;;;;7.43;3.35;;;103.00;2227.20;;;;;;5014881;28;19905;-77
2022/12/04 00:39:07;;;;;;;;;;;103.00;2227.20;;;;;;5013433;28;20053;-77
2022/12/04 00:41:33;;;;;;;7.25;3.25;;;103.00;2227.20;;;;;;5014717;28;19952;-77
2022/12/04 00:43:59;;;;;;;;;;;103.00;2227.20;;;;;;5021071;28;20056;-77
2022/12/04 00:46:25;;;;;;;5.20;2.28;;;103.00;2227.20;;;;;;5011306;28;19905;-77
2022/12/04 00:48:51;;;;;;;;;;;103.00;2227.20;;;;;;5013016;28;20048;-77
2022/12/04 00:51:19;;;;;;;6.00;2.85;;;103.00;2227.20;;;;;;5012134;28;20281;-77
2022/12/04 00:53:45;;;;;;;4.55;2.80;;;103.00;2227.20;;;;;;5003645;28;20061;-77
2022/12/04 00:56:13;;;;;;;;;;;103.00;2227.20;;;;;;5014091;28;20037;-77
2022/12/04 00:58:39;;;;;;;7.03;3.22;;;103.00;2227.20;;;;;;5012110;28;19914;-77
2022/12/04 01:01:08;;;;;;;6.07;3.17;;;103.00;2227.20;;;;;;5008190;28;20539;-77
2022/12/04 01:03:35;;;;;;;5.55;2.95;;;103.00;2227.20;;;;;;5014180;28;20037;-77
2022/12/04 01:06:00;;;;;;;7.20;2.72;;;103.10;2227.20;;;;;;5014783;28;20512;-78
2022/12/04 01:08:26;;;;;;;;;;;103.10;2227.20;;;;;;5030123;28;20038;-76
2022/12/04 01:10:52;;;;;;;6.20;3.15;;;103.10;2227.20;;;;;;5014411;28;20253;-77
2022/12/04 01:13:18;;;;;;;;;;;103.10;2227.20;;;;;;5012947;28;20473;-77
2022/12/04 01:15:44;;;;;;;5.93;2.80;;;103.10;2227.20;;;;;;5014428;28;19951;-77
2022/12/04 01:18:11;;;;;;;7.40;3.30;;;103.00;2227.20;;;;;;5014949;28;20018;-77
2022/12/04 01:20:37;;;;;;;6.57;2.85;;;103.00;2227.20;;;;;;5011003;28;20026;-77
2022/12/04 01:23:02;;;;;;;;;;;103.00;2227.20;;;;;;5015739;28;20037;-77
2022/12/04 01:25:28;;;;;;;6.32;3.05;;;103.00;2227.20;;;;;;5029817;28;19905;-77
2022/12/04 01:27:54;;;;;;;;;;;103.00;2227.20;;;;;;5022443;28;20018;-77
2022/12/04 01:30:19;;;;;;;4.82;2.72;;;103.00;2227.20;;;;;;5012032;28;19905;-77
2022/12/04 01:32:45;;;;;;;;;;;103.00;2227.20;;;;;;5002004;28;20056;-77
2022/12/04 01:35:10;;;;;;;7.35;3.45;;;103.00;2227.20;;;;;;5014288;28;20349;-76
2022/12/04 01:37:36;;;;;;;;;;;103.00;2227.20;;;;;;5014877;28;20099;-78
2022/12/04 01:40:03;;;;;;;5.97;2.85;;;103.00;2227.20;;;;;;5032560;28;20379;-77
2022/12/04 01:42:28;;;;;;;6.25;3.00;;;103.00;2227.20;;;;;;5016024;28;20237;-77
2022/12/04 01:45:13;;;;;;;;;;;103.00;2227.20;;;;;;5024452;28;20122;-77
2022/12/04 01:47:38;;;;;;;6.63;3.10;;;103.00;2227.20;;;;;;5026780;28;19905;-77
2022/12/04 01:50:04;;;;;;;;;;;103.00;2227.20;;;;;;5029489;28;20541;-77
2022/12/04 01:52:30;;;;;;;5.53;2.70;;;103.00;2227.20;;;;;;5014379;28;19906;-77
2022/12/04 01:54:58;;;;;;;;;;;103.00;2227.20;;;;;;5014703;28;20393;-77
2022/12/04 01:57:27;;;;;;;5.47;2.70;;;103.00;2227.20;;;;;;5014586;28;19906;-77
2022/12/04 02:00:03;;;;;;;6.30;3.00;;;103.00;2227.20;;;;;;5015009;28;20236;-78
2022/12/04 02:02:33;;;;;;;5.35;2.30;;;103.00;2227.20;;;;;;5024354;28;20034;-77
2022/12/04 02:05:01;;;;;;;5.68;2.78;;;103.00;2227.20;;;;;;5015288;28;20188;-77
2022/12/04 02:07:27;;;;;;;5.57;3.05;;;103.00;2227.20;;;;;;5007443;28;20036;-78
2022/12/04 02:09:54;;;;;;;5.95;3.28;;;103.00;2227.20;;;;;;5015232;28;20485;-77
2022/12/04 02:12:38;;;;;;;5.93;2.92;;;103.00;2227.20;;;;;;5014075;28;20030;-77
2022/12/04 02:15:20;;;;;;;6.50;2.42;;;103.00;2227.20;;;;;;5011668;28;20022;-77
2022/12/04 02:18:10;;;;;;;5.90;2.88;;;103.00;2227.20;;;;;;5025510;28;20034;-77
2022/12/04 02:20:57;;;;;;;7.35;3.03;;;102.90;2227.20;;;;;;5017188;28;20078;-78
2022/12/04 02:23:26;;;;;;;6.70;2.60;;;102.90;2227.20;;;;;;5033761;28;20095;-77
2022/12/04 02:26:23;;;;;;;7.22;3.50;;;102.90;2227.20;;;;;;5022536;28;20025;-77
2022/12/04 02:29:09;;;;;;;6.72;2.83;;;102.90;2227.20;;;;;;5017279;28;20041;-77
2022/12/04 02:31:57;;;;;;;5.30;2.72;;;102.90;2227.20;;;;;;5027274;28;20029;-78
2022/12/04 02:34:24;;;;;;;5.72;2.95;;;103.00;2227.20;;;;;;5017000;28;20493;-77
2022/12/04 02:37:03;;;;;;;5.63;2.75;;;103.00;2227.20;;;;;;5033829;28;20025;-78
2022/12/04 02:39:43;;;;;;;4.38;2.38;;;103.00;2227.20;;;;;;5016739;28;20033;-78
2022/12/04 02:42:34;;;;;;;5.43;2.88;;;103.00;2227.20;;;;;;5030399;28;20029;-78
2022/12/04 02:45:06;;;;;;;6.20;3.22;;;103.00;2227.20;;;;;;5014605;28;20040;-77
2022/12/04 02:47:33;;;;;;;5.50;3.00;;;103.00;2227.20;;;;;;5010240;28;20358;-77
2022/12/04 02:50:04;;;;;;;5.15;2.55;;;103.10;2227.20;;;;;;5016638;28;20038;-77
2022/12/04 02:52:36;;;;;;;5.05;2.38;;;103.10;2227.20;;;;;;5033161;28;20029;-78
2022/12/04 02:55:11;;;;;;;5.05;2.83;;;103.10;2227.20;;;;;;5020216;28;20100;-78
2022/12/04 02:57:42;;;;;;;5.40;2.58;;;103.10;2227.20;;;;;;5016541;28;20022;-78
2022/12/04 03:00:09;;;;;;;6.00;2.85;;;103.10;2227.20;;;;;;5030834;28;20021;-77
2022/12/04 03:02:42;;;;;;;5.43;2.78;;;103.00;2227.20;;;;;;5016348;28;20052;-77
2022/12/04 03:05:15;;;;;;;5.97;2.90;;;103.00;2227.20;;;;;;5015910;28;20386;-78
2022/12/04 03:08:15;;;;;;;5.50;3.17;;;103.00;2227.20;;;;;;5012922;28;20056;-78
2022/12/04 03:10:47;;;;;;;5.63;2.65;;;102.90;2227.20;;;;;;4976466;28;20050;-78
2022/12/04 03:13:22;;;;;;;4.55;2.30;;;103.00;2227.20;;;;;;4992838;28;20109;-78
2022/12/04 03:16:08;;;;;;;4.45;2.65;;;103.00;2227.20;;;;;;4976150;28;20026;-77
2022/12/04 03:18:43;;;;;;;6.13;2.42;;;103.00;2227.20;;;;;;4975552;28;20031;-77
2022/12/04 03:21:18;;;;;;;4.53;2.53;;;103.00;2227.20;;;;;;4992334;28;20039;-76
2022/12/04 03:23:49;;;;;;;7.05;3.00;;;103.00;2227.20;;;;;;4991627;28;20030;-77
2022/12/04 03:26:31;;;;;;;6.25;2.53;;;103.00;2227.20;;;;;;4976035;28;20126;-76
2022/12/04 03:29:05;;;;;;;5.85;2.15;;;103.10;2227.20;;;;;;4992024;28;20114;-77
2022/12/04 03:31:57;;;;;;;6.00;2.30;;;103.10;2227.20;;;;;;4991852;28;20023;-77
2022/12/04 03:34:31;;;;;;;6.35;2.85;;;103.20;2227.20;;;;;;4963540;28;20049;-77
2022/12/04 03:37:02;;;;;;;3.75;2.20;;;103.10;2227.20;;;;;;4992002;28;20032;-77
2022/12/04 03:39:31;;;;;;;3.20;1.75;;;103.20;2227.20;;;;;;4976047;28;20034;-77
2022/12/04 03:42:12;;;;;;;3.63;1.95;;;103.10;2227.20;;;;;;4991987;28;20089;-78
2022/12/04 03:44:56;;;;;;;3.67;1.88;;;103.10;2227.20;;;;;;4975682;28;20482;-78
2022/12/04 03:47:37;;;;;;;4.53;2.22;;;103.20;2227.20;;;;;;5007249;28;20041;-77
2022/12/04 03:50:08;;;;;;;5.18;2.50;;;103.10;2227.20;;;;;;5015630;28;20484;-77
2022/12/04 03:52:49;;;;;;;3.53;2.10;;;103.10;2227.20;;;;;;5022347;28;20119;-78
2022/12/04 03:55:23;;;;;;;4.10;2.60;;;128.00;2252.80;;;;;;5013206;28;20030;-76
2022/12/04 03:57:50;;;;;;;5.03;2.42;;;103.10;2227.20;;;;;;5009466;28;20477;-78
2022/12/04 04:00:19;;;;;;;4.13;2.28;;;103.10;2227.20;;;;;;5002479;28;20032;-77
2022/12/04 04:02:58;;;;;;;3.95;2.03;;;103.10;2227.20;;;;;;5014977;28;20037;-77
2022/12/04 04:05:27;;;;;;;5.03;1.95;;;103.00;2227.20;;;;;;5014955;28;20428;-77
2022/12/04 04:08:24;;;;;;;4.72;2.92;;;102.90;2227.20;;;;;;5031171;28;20057;-77
2022/12/04 04:10:42;;;;;;;3.80;2.35;;;102.90;2227.20;;;;;;5032899;28;20017;-76
2022/12/04 04:24:41;;;;;;;4.20;2.22;;;102.80;2227.20;;;;;;5013590;28;20056;-77
2022/12/04 04:27:06;;;;;;;4.45;2.00;;;102.70;2227.20;;;;;;5012840;28;20025;-76
2022/12/04 04:29:32;;;;;;;;;;;102.70;2227.20;;;;;;5012026;28;20363;-77
2022/12/04 04:32:36;;;;;;;4.35;2.28;;;102.70;2227.20;;;;;;5012022;28;19912;-77
2022/12/04 04:35:20;;;;;;;4.60;1.98;;;102.60;2227.20;;;;;;5012115;28;20038;-77
2022/12/04 04:38:04;;;;;;;3.25;1.60;;;102.60;2227.20;;;;;;5012919;28;20053;-77
2022/12/04 04:40:37;;;;;;;3.67;1.70;;;102.60;2227.20;;;;;;5011447;28;20029;-77
2022/12/04 04:43:14;;;;;;;3.33;1.70;;;102.60;2227.20;;;;;;5013741;28;20033;-77
2022/12/04 04:45:46;;;;;;;3.65;1.80;;;102.60;2227.20;;;;;;5014140;28;20033;-77
2022/12/04 04:48:20;;;;;;;5.88;2.10;;;102.60;2227.20;;;;;;5014373;28;20028;-77
2022/12/04 04:50:46;;;;;;;3.63;1.70;;;102.70;2227.20;;;;;;5022178;28;20038;-77
2022/12/04 04:53:17;;;;;;;3.72;1.83;;;102.90;2227.20;;;;;;5014257;28;20549;-77
2022/12/04 04:55:43;;;;;;;3.67;1.77;;;102.90;2227.20;;;;;;5014865;28;20022;-78
2022/12/04 04:58:12;;;;;;;3.45;1.92;;;102.90;2227.20;;;;;;5011301;28;20425;-77
2022/12/04 05:00:39;;;;;;;4.53;1.98;;;103.00;2227.20;;;;;;5012300;28;20026;-77
2022/12/04 05:03:05;;;;;;;3.22;1.88;;;102.90;2227.20;;;;;;5013846;28;20121;-77
2022/12/04 05:05:31;;;;;;;;;;;102.90;2227.20;;;;;;5014776;28;20064;-77
2022/12/04 05:07:56;;;;;;;4.70;2.17;;;102.80;2227.20;;;;;;5032370;28;19905;-77
2022/12/04 05:10:22;;;;;;;;;;;102.80;2227.20;;;;;;5014540;28;20024;-77
2022/12/04 05:12:48;;;;;;;4.70;2.05;;;102.80;2227.20;;;;;;5014858;28;19912;-77
2022/12/04 05:15:13;;;;;;;;;;;102.80;2227.20;;;;;;5028656;28;20880;-77
2022/12/04 05:17:39;;;;;;;3.88;2.00;;;102.80;2227.20;;;;;;5014426;28;19906;-77
2022/12/04 05:20:05;;;;;;;;;;;102.80;2227.20;;;;;;5013792;28;20116;-76
2022/12/04 05:22:34;;;;;;;4.28;2.10;;;102.80;2227.20;;;;;;5018511;28;19972;-77
2022/12/04 05:25:00;;;;;;;3.95;2.00;;;102.80;2227.20;;;;;;5034667;28;20045;-77
2022/12/04 05:27:28;;;;;;;4.45;1.98;;;102.80;2227.20;;;;;;5018492;28;20025;-77
2022/12/04 05:29:55;;;;;;;3.95;2.20;;;102.80;2227.20;;;;;;5034764;28;20032;-77
2022/12/04 05:32:22;;;;;;;3.95;1.90;;;102.80;2227.20;;;;;;5017892;28;20053;-75
2022/12/04 05:34:50;;;;;;;5.25;2.58;;;102.80;2227.20;;;;;;5018598;28;20084;-77
2022/12/04 05:37:16;;;;;;;5.25;2.38;;;102.80;2227.20;;;;;;5014796;28;20040;-78
2022/12/04 05:39:42;;;;;;;4.32;2.35;;;102.80;2227.20;;;;;;5016212;28;20054;-77
2022/12/04 05:42:08;;;;;;;5.63;2.22;;;102.80;2227.20;;;;;;5030915;28;20116;-77
2022/12/04 05:44:34;;;;;;;;;;;102.80;2227.20;;;;;;5018763;28;20109;-76
2022/12/04 05:47:00;;;;;;;3.75;1.85;;;102.80;2227.20;;;;;;5014463;28;19968;-76
2022/12/04 05:49:27;;;;;;;;;;;102.80;2227.20;;;;;;5012363;28;20028;-78
2022/12/04 05:51:53;;;;;;;4.65;2.22;;;102.80;2227.20;;;;;;5015754;28;19906;-77
2022/12/04 05:54:18;;;;;;;;;;;102.70;2227.20;;;;;;5016235;28;20041;-77
2022/12/04 05:56:45;;;;;;;5.95;2.75;;;102.80;2227.20;;;;;;5014434;28;20375;-77
2022/12/04 05:59:10;;;;;;;;;;;102.80;2227.20;;;;;;5027209;28;20030;-78
2022/12/04 06:01:36;;;;;;;5.18;2.50;;;102.80;2227.20;;;;;;5031741;28;19912;-76
2022/12/04 06:04:02;;;;;;;;;;;102.80;2227.20;;;;;;5007468;28;20128;-76
2022/12/04 06:06:28;;;;;;;4.63;2.35;;;102.80;2227.20;;;;;;5019905;28;20051;-78
2022/12/04 06:08:55;;;;;;;;;;;102.80;2227.20;;;;;;5015874;28;20548;-77
2022/12/04 06:11:30;;;;;;;4.95;1.90;;;102.80;2227.20;;;;;;5015710;28;20396;-77
2022/12/04 06:13:57;;;;;;;5.18;2.50;;;102.80;2227.20;;;;;;5004595;28;20107;-77
2022/12/04 06:16:32;;;;;;;4.78;2.38;;;102.90;2227.20;;;;;;5017308;28;20087;-76
2022/12/04 06:19:00;;;;;;;6.95;3.00;;;102.90;2227.20;;;;;;5028699;28;20030;-77
2022/12/04 06:21:28;;;;;;;8.85;2.75;;;103.00;2227.20;;;;;;5015178;28;20546;-76
2022/12/04 06:23:54;;;;;;;5.45;3.17;;;103.00;2227.20;;;;;;5013830;28;20036;-77
2022/12/04 06:26:20;;;;;;;;;;;103.10;2227.20;;;;;;5014184;28;20030;-77
2022/12/04 06:28:47;;;;;;;5.00;2.75;;;103.10;2227.20;;;;;;5028622;28;19913;-77
2022/12/04 06:31:17;;;;;;;6.10;2.88;;;103.10;2227.20;;;;;;5006582;28;20021;-77
2022/12/04 06:33:44;;;;;;;6.97;3.50;;;103.20;2227.20;;;;;;5018659;28;20107;-77
2022/12/04 06:36:16;;;;;;;5.75;3.10;;;103.20;2227.20;;;;;;5013453;28;20029;-77
2022/12/04 06:38:42;;;;;;;8.13;3.00;;;103.30;2227.20;;;;;;5006965;28;20018;-77
2022/12/04 06:41:11;;;;;;;5.40;3.00;;;128.00;2252.80;;;;;;5000619;28;20071;-77
2022/12/04 06:43:37;;;;;;;7.53;3.70;;;128.00;2252.80;;;;;;5023661;28;20069;-78
2022/12/04 06:46:04;;;;;;;;;;;128.10;2252.80;;;;;;5015251;28;20045;-78
2022/12/04 06:48:31;;;;;;;7.72;3.15;;;128.10;2252.80;;;;;;5004959;28;20273;-77
2022/12/04 06:51:30;;;;;;;6.22;3.05;;;128.10;2252.80;;;;;;5016620;28;20029;-77
2022/12/04 06:53:57;;;;;;;6.85;3.45;;;128.20;2252.80;;;;;;4954245;28;20051;-77
2022/12/04 06:56:25;;;;;;;8.48;2.97;;;128.30;2252.80;;;;;;4953203;28;20047;-77
2022/12/04 06:58:53;;;;;;;6.72;2.53;;;128.30;2252.80;;;;;;4951015;28;20402;-77
2022/12/04 07:01:22;;;;;;;5.95;3.10;;;128.40;2252.80;;;;;;4949399;29;20031;-78
2022/12/04 07:03:48;;;;;;;7.35;3.40;;;128.40;2252.80;;;;;;4953952;29;20511;-78
2022/12/04 07:06:24;;;;;;;4.78;2.80;;;128.40;2252.80;;;;;;4953713;29;20074;-81
2022/12/04 07:08:57;;;;;;;5.77;3.27;;;128.40;2252.80;;;;;;4952987;28;20031;-77
2022/12/04 07:11:23;;;;;;;5.82;2.97;;;128.50;2252.80;;;;;;4936902;29;20392;-76
2022/12/04 07:13:50;;;;;;;7.50;3.10;;;128.50;2252.80;;;;;;4936825;29;20015;-76
2022/12/04 07:16:17;;;;;;;5.90;2.67;;;128.60;2252.80;;;;;;4936641;29;20091;-76
2022/12/04 07:18:43;;;;;;;7.30;3.28;;;128.60;2252.80;;;;;;4950380;29;20027;-77
2022/12/04 07:21:11;;;;;;;;;;;128.70;2252.80;;;;;;4942641;29;20028;-76
2022/12/04 07:23:37;;;;;;;10.10;4.47;;;128.80;2252.80;;;;;;4952327;29;20284;-77
2022/12/04 07:26:10;;;;;;;;;;;128.80;2252.80;;;;;;4953913;28;20479;-77
2022/12/04 07:28:36;;;;;;;7.05;3.13;;;128.80;2252.80;;;;;;4963903;28;19957;-80
2022/12/04 07:31:04;;;;;;;6.38;3.17;;;128.90;2252.80;;;;;;5015597;28;20033;-76
2022/12/04 07:33:30;;;;;;;8.07;3.25;;;153.60;2252.80;;;;;;5015264;28;20057;-77
2022/12/04 07:35:56;;;;;;;;;;;153.60;2252.80;;;;;;5016709;28;20519;-77
2022/12/04 07:38:22;;;;;;;6.45;3.08;;;153.70;2252.80;;;;;;5031154;28;20319;-77
2022/12/04 07:40:48;;;;;;;;;;;153.80;2252.80;;;;;;5016623;28;20029;-77
2022/12/04 07:43:14;;;;;;;6.32;2.38;;;153.80;2252.80;;;;;;5015260;28;19917;-76
2022/12/04 07:45:39;;;;;;;5.32;2.60;;;153.90;2252.80;;;;;;5021202;28;20018;-77
2022/12/04 07:48:05;;;;;;;;;;;153.90;2252.80;;;;;;5011754;28;20036;-76
2022/12/04 07:50:30;;;;;;;5.57;2.85;;;154.00;2252.80;;;;;;5008404;28;20328;-75
2022/12/04 07:52:56;;;;;;;;;;;154.00;2252.80;;;;;;5008343;28;20043;-77
2022/12/04 07:55:22;;;;;;;7.43;2.28;;;154.10;2252.80;;;;;;5042671;28;19909;-76
2022/12/04 07:57:47;;;;;;;;;;;154.10;2252.80;;;;;;5022919;28;20421;-77
2022/12/04 08:00:13;;;;;;;8.23;3.50;;;154.10;2252.80;;;;;;5029121;28;19905;-79
2022/12/04 08:02:39;;;;;;;8.05;2.80;;;154.10;2252.80;;;;;;5014349;28;20498;-80
2022/12/04 08:05:05;;;;;;;;;;;154.20;2252.80;;;;;;5004975;28;20026;-80
2022/12/04 08:07:31;;;;;;;6.55;2.65;;;154.30;2252.80;;;;;;5023225;28;19913;-80
2022/12/04 08:09:57;;;;;;;4.90;2.75;;;154.40;2252.80;;;;;;5018303;28;20053;-78
2022/12/04 08:12:22;;;;;;;;;;;154.40;2252.80;;;;;;5015978;28;20111;-79
2022/12/04 08:14:48;;;;;;;7.05;2.72;;;154.40;2252.80;;;;;;5015194;28;19905;-76
2022/12/04 08:17:14;;;;;;;5.63;3.03;;;154.50;2252.80;;;;;;5013394;28;20021;-77
2022/12/04 08:19:40;;;;;;;;;;;179.20;2252.80;;;;;;5013267;28;20101;-77
2022/12/04 08:22:06;;;;;;;4.50;2.70;;;179.30;2252.80;;;;;;5011645;28;19940;-75
2022/12/04 08:24:31;;;;;;;;;;;179.30;2252.80;;;;;;5015039;28;20048;-78
2022/12/04 08:26:57;;;;;;;5.13;2.90;;;179.30;2252.80;;;;;;5023232;28;20387;-77
2022/12/04 08:29:22;;;;;;;;;;;179.40;2252.80;;;;;;5031955;28;20071;-78
2022/12/04 08:31:48;;;;;;;5.82;2.50;;;179.40;2252.80;;;;;;5014154;28;20464;-83
2022/12/04 08:34:14;;;;;;;;;;;179.50;2252.80;;;;;;5013367;28;20022;-78
2022/12/04 08:36:40;;;;;;;6.32;3.20;;;179.50;2252.80;;;;;;5014922;28;20353;-77
2022/12/04 08:39:05;;;;;;;;;;;179.60;2252.80;;;;;;5015647;28;20121;-77
2022/12/04 08:41:31;;;;;;;3.70;2.05;;;179.70;2252.80;;;;;;5018907;28;19912;-79
2022/12/04 08:43:57;;;;;;;;;;;179.70;2252.80;;;;;;5009537;28;20029;-77
2022/12/04 08:46:25;;;;;;;6.60;3.30;;;179.80;2252.80;;;;;;5014117;28;19905;-79
2022/12/04 08:48:51;;;;;;;5.63;2.80;;;179.80;2252.80;;;;;;5032144;28;20075;-78
2022/12/04 08:51:17;;;;;;;;;;;179.90;2252.80;;;;;;5014843;28;20041;-78
2022/12/04 08:53:44;;;;;;;5.03;2.38;;;180.00;2252.80;;;;;;5020866;28;19917;-76
2022/12/04 08:56:10;;;;;;;5.30;2.88;;;180.00;2252.80;;;;;;5012198;28;20033;-78
2022/12/04 08:58:35;;;;;;;;;;;180.10;2252.80;;;;;;5014960;28;20033;-77
2022/12/04 09:01:09;;;;;;;6.97;3.17;;;180.10;2252.80;;;;;;5017445;28;19908;-78
2022/12/04 09:03:36;;;;;;;6.03;2.95;;;204.80;2252.80;;;;;;5003094;28;20090;-77
2022/12/04 09:06:03;;;;;;;6.72;3.60;;;204.80;2252.80;;;;;;5013733;28;20033;-77
2022/12/04 09:08:29;;;;;;;5.00;2.88;;;204.90;2252.80;;;;;;5001564;28;20022;-77
2022/12/04 09:11:01;;;;;;;8.90;3.65;;;205.00;2252.80;;;;;;5031834;28;20120;-79
2022/12/04 09:13:27;;;;;;;4.03;2.60;;;205.00;2252.80;;;;;;5014408;28;20469;-79
2022/12/04 09:15:52;;;;;;;;;;;205.10;2252.80;;;;;;5015274;28;20083;-77
2022/12/04 09:18:18;;;;;;;7.13;2.70;;;205.10;2252.80;;;;;;5012674;28;19959;-78
2022/12/04 09:20:43;;;;;;;;;;;205.20;2252.80;;;;;;5011639;28;20084;-78
2022/12/04 09:23:09;;;;;;;4.05;2.28;;;205.30;2252.80;;;;;;5022364;28;20301;-78
2022/12/04 09:25:36;;;;;;;;;;;205.30;2252.80;;;;;;5013661;28;20099;-81
2022/12/04 09:28:02;;;;;;;7.47;3.40;;;205.40;2252.80;;;;;;5030398;28;19909;-77
2022/12/04 09:30:27;;;;;;;;;;;205.40;2252.80;;;;;;5022704;28;20491;-79
2022/12/04 09:32:53;;;;;;;5.88;2.78;;;205.40;2252.80;;;;;;5018440;28;19919;-77
2022/12/04 09:35:18;;;;;;;;;;;205.40;2252.80;;;;;;5030889;28;20030;-78
2022/12/04 09:37:44;;;;;;;6.70;3.05;;;205.40;2252.80;;;;;;5014115;28;19950;-78
2022/12/04 09:40:25;;;;;;;;;;;205.50;2252.80;;;;;;5021258;28;20060;-79
2022/12/04 09:43:12;;;;;;;6.93;3.00;;;205.50;2252.80;;;;;;5008913;28;19913;-81
2022/12/04 09:45:53;;;;;;;9.80;3.95;;;205.20;2252.80;;;;;;5016897;28;20056;-80
2022/12/04 09:48:25;;;;;;;6.13;3.17;;;205.10;2252.80;;;;;;4999844;28;20119;-81
2022/12/04 09:50:52;;;;;;;7.35;3.13;;;205.10;2252.80;;;;;;5017462;28;20030;-79
2022/12/04 09:53:24;;;;;;;5.82;2.47;;;205.10;2252.80;;;;;;5028456;28;20041;-77
2022/12/04 09:56:10;;;;;;;6.97;3.83;;;205.10;2252.80;;;;;;5022995;28;20014;-78
2022/12/04 09:59:02;;;;;;;6.68;2.38;;;205.10;2252.80;;;;;;5008094;28;20623;-75
2022/12/04 10:01:50;;;;;;;5.38;2.95;;;205.00;2252.80;;;;;;5028539;28;20048;-78
2022/12/04 10:04:16;;;;;;;4.80;2.92;;;205.10;2252.80;;;;;;5033048;28;20048;-78
2022/12/04 10:06:54;;;;;;;9.32;4.60;;;205.00;2252.80;;;;;;5012869;28;20029;-77
2022/12/04 10:09:25;;;;;;;6.00;3.50;;;205.10;2252.80;;;;;;5018344;28;20482;-78
2022/12/04 10:12:03;;;;;;;6.03;2.95;;;205.10;2252.80;;;;;;5028591;28;20017;-80
2022/12/04 10:14:41;;;;;;;4.72;2.55;;;205.10;2252.80;;;;;;5026464;28;20024;-79
2022/12/04 10:17:40;;;;;;;5.75;3.33;;;205.20;2252.80;;;;;;5005916;28;20080;-77
2022/12/04 10:20:27;;;;;;;5.97;3.08;;;205.30;2252.80;;;;;;5017553;28;20385;-78
2022/12/04 10:23:35;;;;;;;4.93;2.80;;;205.30;2252.80;;;;;;5015481;28;20109;-78
2022/12/04 10:26:03;;;;;;;5.97;3.08;;;205.20;2252.80;;;;;;5014937;28;20034;-78
2022/12/04 10:28:40;;;;;;;5.68;2.92;;;205.20;2252.80;;;;;;5024020;28;20068;-78
2022/12/04 10:31:12;;;;;;;5.68;3.20;;;205.20;2252.80;;;;;;5020275;28;20626;-79
2022/12/04 10:33:46;;;;;;;7.00;3.05;;;205.30;2252.80;;;;;;5014433;28;20030;-83
2022/12/04 10:36:17;;;;;;;7.03;3.22;;;205.40;2252.80;;;;;;5010425;28;20030;-78
2022/12/04 10:38:51;;;;;;;7.93;3.30;;;205.40;2252.80;;;;;;5017231;28;20466;-80
2022/12/04 10:41:28;;;;;;;9.13;3.45;;;205.50;2252.80;;;;;;5026276;28;20559;-79
2022/12/04 10:43:54;;;;;;;7.35;3.05;;;205.60;2252.80;;;;;;5004913;28;20084;-77
2022/12/04 10:46:22;;;;;;;;;;;205.60;2252.80;;;;;;5033074;28;20481;-82
2022/12/04 10:48:56;;;;;;;6.30;3.17;;;205.70;2252.80;;;;;;5016606;28;19905;-79
2022/12/04 10:51:22;;;;;;;3.38;1.95;;;230.40;2252.80;;;;;;5013359;28;20025;-81
2022/12/04 10:53:49;;;;;;;7.40;3.10;;;230.40;2252.80;;;;;;5005161;28;20045;-82
2022/12/04 10:56:22;;;;;;;7.25;3.33;;;230.50;2252.80;;;;;;5002991;28;20048;-81
2022/12/04 10:58:59;;;;;;;7.57;3.33;;;230.60;2252.80;;;;;;5023094;28;20022;-79
2022/12/04 11:01:27;;;;;;;5.28;3.38;;;230.40;2252.80;;;;;;5004518;28;20033;-85
2022/12/04 11:04:07;;;;;;;6.55;3.65;;;205.70;2252.80;;;;;;5010469;28;20052;-84
2022/12/04 11:06:33;;;;;;;6.07;3.25;;;205.70;2252.80;;;;;;5013172;28;20137;-77
2022/12/04 11:09:01;;;;;;;6.63;3.22;;;230.40;2252.80;;;;;;5016352;28;20030;-84
2022/12/04 11:11:32;;;;;;;9.20;3.70;;;230.60;2252.80;;;;;;5006302;28;20034;-82
2022/12/04 11:14:04;;;;;;;6.38;3.13;;;230.80;2252.80;;;;;;5013688;28;20022;-81
2022/12/04 11:16:37;;;;;;;5.20;3.00;;;230.60;2252.80;;;;;;5014962;28;20017;-83
2022/12/04 11:19:21;;;;;;;6.72;2.90;;;230.50;2252.80;;;;;;5013412;28;20029;-77
2022/12/04 11:21:48;;;;;;;5.25;2.80;;;205.70;2252.80;;;;;;5008578;28;20022;-78
2022/12/04 11:24:23;;;;;;;5.78;2.95;;;205.70;2252.80;;;;;;5016691;28;20038;-79
2022/12/04 11:26:50;;;;;;;7.28;3.08;;;205.60;2252.80;;;;;;5012139;28;20021;-81
2022/12/04 11:29:19;;;;;;;7.65;4.18;;;205.60;2252.80;;;;;;5003968;28;20025;-79
2022/12/04 11:31:53;;;;;;;7.25;3.50;;;230.40;2252.80;;;;;;5020344;28;20029;-81
2022/12/04 11:34:22;;;;;;;8.10;3.50;;;230.40;2252.80;;;;;;5023970;28;20489;-84
2022/12/04 11:36:56;;;;;;;5.95;3.45;;;230.40;2252.80;;;;;;5017771;28;20034;-81
2022/12/04 11:39:28;;;;;;;6.78;3.40;;;230.60;2252.80;;;;;;5012074;28;20125;-78
2022/12/04 11:42:12;;;;;;;9.32;3.33;;;230.60;2252.80;;;;;;5011992;28;20052;-77
2022/12/04 11:44:39;;;;;;;5.90;2.63;;;230.70;2252.80;;;;;;5018568;28;20100;-84
2022/12/04 11:47:14;;;;;;;5.90;2.60;;;230.80;2252.80;;;;;;5025693;28;20018;-77
2022/12/04 11:49:41;;;;;;;7.35;2.97;;;230.90;2252.80;;;;;;5031810;28;20025;-76
2022/12/04 11:52:32;;;;;;;5.18;3.15;;;230.90;2252.80;;;;;;5033401;28;20090;-78
2022/12/04 11:55:20;;;;;;;6.03;2.92;;;231.00;2252.80;;;;;;5024279;28;20108;-83
2022/12/04 11:58:27;;;;;;;5.13;2.65;;;230.90;2252.80;;;;;;5027290;28;20018;-79
2022/12/04 12:01:23;;;;;;;7.40;3.60;;;230.90;2252.80;;;;;;5018858;28;20492;-77
2022/12/04 12:04:01;;;;;;;4.35;2.90;;;230.80;2252.80;;;;;;5019808;28;20046;-78
2022/12/04 12:06:30;;;;;;;6.13;3.30;;;230.70;2252.80;;;;;;5023573;28;20025;-78
2022/12/04 12:09:15;;;;;;;7.88;3.42;;;230.70;2252.80;;;;;;5026452;28;20108;-79
2022/12/04 12:12:00;;;;;;;7.82;2.72;;;230.60;2252.80;;;;;;5015351;28;20025;-83
2022/12/04 12:14:28;;;;;;;6.40;3.53;;;230.60;2252.80;;;;;;5023636;28;20064;-79
2022/12/04 12:17:09;;;;;;;5.63;2.92;;;230.50;2252.80;;;;;;5008788;28;20389;-84
2022/12/04 12:20:12;;;;;;;5.88;3.28;;;230.40;2252.80;;;;;;4996957;28;20565;-77
2022/12/04 12:23:21;;;;;;;5.10;3.38;;;230.50;2252.80;;;;;;5023316;28;20034;-79
2022/12/04 12:25:56;;;;;;;7.30;3.55;;;230.40;2252.80;;;;;;4952021;28;20047;-79
2022/12/04 12:28:58;;;;;;;5.13;3.22;;;230.40;2252.80;;;;;;4936103;29;20038;-78
2022/12/04 12:31:45;;;;;;;6.00;3.42;;;230.40;2252.80;;;;;;4952488;28;20136;-81
2022/12/04 12:34:21;;;;;;;9.52;3.42;;;230.40;2252.80;;;;;;4952398;28;20503;-78
2022/12/04 12:36:51;;;;;;;9.20;3.95;;;230.40;2252.80;;;;;;4951996;28;20560;-77
2022/12/04 12:39:29;;;;;;;8.20;4.15;;;205.70;2252.80;;;;;;4935699;29;20097;-77
2022/12/04 12:41:59;;;;;;;4.63;2.95;;;205.70;2252.80;;;;;;4935385;29;20106;-78
2022/12/04 12:44:42;;;;;;;7.05;3.92;;;205.70;2252.80;;;;;;4951911;29;20027;-78
2022/12/04 12:47:15;;;;;;;5.57;3.28;;;205.70;2252.80;;;;;;4951795;28;20485;-78
2022/12/04 12:50:03;;;;;;;5.50;3.33;;;205.60;2252.80;;;;;;4936052;29;20128;-79
2022/12/04 12:52:52;;;;;;;5.07;2.88;;;205.50;2252.80;;;;;;4932277;29;20047;-79
2022/12/04 12:55:41;;;;;;;6.45;3.88;;;205.50;2252.80;;;;;;4935072;29;20015;-78
2022/12/04 12:58:25;;;;;;;6.95;4.05;;;205.70;2252.80;;;;;;4951672;28;20031;-77
2022/12/04 13:01:06;;;;;;;7.75;3.85;;;205.70;2252.80;;;;;;5007501;28;20038;-78
2022/12/04 13:03:56;;;;;;;6.13;3.72;;;205.70;2252.80;;;;;;4981093;28;20038;-78